sensor_id;sensor_type;location;lat;lon;timestamp;temperature;humidity
1880;DHT22;49285;49.002;8.390;2023-03-14T00:02:20;13.90;99.90
1880;DHT22;49285;49.002;8.390;2023-03-14T00:04:45;13.90;99.90
1880;DHT22;49285;49.002;8.390;2023-03-14T00:07:12;13.90;99.90
1880;DHT22;49285;49.002;8.390;2023-03-14T00:09:38;13.90;99.90
1880;DHT22;49285;49.002;8.390;2023-03-14T00:12:04;14.00;99.90
1880;DHT22;49285;49.002;8.390;2023-03-14T00:14:30;14.00;99.90
1880;DHT22;49285;49.002;8.390;2023-03-14T00:16:56;14.10;99.90
1880;DHT22;49285;49.002;8.390;2023-03-14T00:19:22;14.00;99.90
1880;DHT22;49285;49.002;8.390;2023-03-14T00:21:47;14.00;99.90
1880;DHT22;49285;49.002;8.390;2023-03-14T00:24:13;14.00;99.90
1880;DHT22;49285;49.002;8.390;2023-03-14T00:26:38;13.90;99.90
1880;DHT22;49285;49.002;8.390;2023-03-14T00:29:04;14.00;99.90
1880;DHT22;49285;49.002;8.390;2023-03-14T00:31:29;14.00;99.90
1880;DHT22;49285;49.002;8.390;2023-03-14T00:33:55;14.00;99.90
1880;DHT22;49285;49.002;8.390;2023-03-14T00:36:21;14.00;99.90
1880;DHT22;49285;49.002;8.390;2023-03-14T00:38:48;13.90;99.90
1880;DHT22;49285;49.002;8.390;2023-03-14T00:41:18;13.90;99.90
1880;DHT22;49285;49.002;8.390;2023-03-14T00:43:44;13.90;99.90
1880;DHT22;49285;49.002;8.390;2023-03-14T00:46:10;14.00;99.90
1880;DHT22;49285;49.002;8.390;2023-03-14T00:48:36;13.90;99.90
1880;DHT22;49285;49.002;8.390;2023-03-14T00:51:03;13.90;99.90
1880;DHT22;49285;49.002;8.390;2023-03-14T00:53:29;14.00;99.90
1880;DHT22;49285;49.002;8.390;2023-03-14T00:55:55;14.00;99.90
1880;DHT22;49285;49.002;8.390;2023-03-14T00:58:20;14.00;99.90
1880;DHT22;49285;49.002;8.390;2023-03-14T01:00:46;13.90;99.90
1880;DHT22;49285;49.002;8.390;2023-03-14T01:03:12;13.90;99.90
1880;DHT22;49285;49.002;8.390;2023-03-14T01:05:39;13.80;99.90
1880;DHT22;49285;49.002;8.390;2023-03-14T01:08:06;13.80;99.90
1880;DHT22;49285;49.002;8.390;2023-03-14T01:10:32;13.70;99.90
1880;DHT22;49285;49.002;8.390;2023-03-14T01:12:58;13.80;99.90
1880;DHT22;49285;49.002;8.390;2023-03-14T01:15:23;13.70;99.90
1880;DHT22;49285;49.002;8.390;2023-03-14T01:17:49;13.70;99.90
1880;DHT22;49285;49.002;8.390;2023-03-14T01:20:15;13.70;99.90
1880;DHT22;49285;49.002;8.390;2023-03-14T01:22:42;13.70;99.90
1880;DHT22;49285;49.002;8.390;2023-03-14T01:25:14;13.70;99.90
1880;DHT22;49285;49.002;8.390;2023-03-14T01:27:41;13.70;99.90
1880;DHT22;49285;49.002;8.390;2023-03-14T01:30:08;13.70;99.90
1880;DHT22;49285;49.002;8.390;2023-03-14T01:32:34;13.70;99.90
1880;DHT22;49285;49.002;8.390;2023-03-14T01:35:00;13.60;99.90
1880;DHT22;49285;49.002;8.390;2023-03-14T01:37:25;13.50;99.90
1880;DHT22;49285;49.002;8.390;2023-03-14T01:39:51;13.50;99.90
1880;DHT22;49285;49.002;8.390;2023-03-14T01:42:16;13.50;99.90
1880;DHT22;49285;49.002;8.390;2023-03-14T01:44:57;13.50;99.90
1880;DHT22;49285;49.002;8.390;2023-03-14T01:47:23;13.40;99.90
1880;DHT22;49285;49.002;8.390;2023-03-14T01:49:56;13.40;99.90
1880;DHT22;49285;49.002;8.390;2023-03-14T01:52:39;13.50;99.90
1880;DHT22;49285;49.002;8.390;2023-03-14T01:55:13;13.40;99.90
1880;DHT22;49285;49.002;8.390;2023-03-14T01:57:41;13.40;99.90
1880;DHT22;49285;49.002;8.390;2023-03-14T02:00:12;13.30;99.90
1880;DHT22;49285;49.002;8.390;2023-03-14T02:02:41;13.20;99.90
1880;DHT22;49285;49.002;8.390;2023-03-14T02:05:09;13.20;99.90
1880;DHT22;49285;49.002;8.390;2023-03-14T02:07:44;13.20;99.90
1880;DHT22;49285;49.002;8.390;2023-03-14T02:10:11;13.10;99.90
1880;DHT22;49285;49.002;8.390;2023-03-14T02:12:37;13.10;99.90
1880;DHT22;49285;49.002;8.390;2023-03-14T02:15:04;13.10;99.90
1880;DHT22;49285;49.002;8.390;2023-03-14T02:17:30;13.10;99.90
1880;DHT22;49285;49.002;8.390;2023-03-14T02:20:22;13.10;99.90
1880;DHT22;49285;49.002;8.390;2023-03-14T02:22:53;13.10;99.90
1880;DHT22;49285;49.002;8.390;2023-03-14T02:25:34;13.10;99.90
1880;DHT22;49285;49.002;8.390;2023-03-14T02:28:01;13.20;99.90
1880;DHT22;49285;49.002;8.390;2023-03-14T02:30:29;13.10;99.90
1880;DHT22;49285;49.002;8.390;2023-03-14T02:33:00;13.10;99.90
1880;DHT22;49285;49.002;8.390;2023-03-14T02:36:12;13.10;99.90
1880;DHT22;49285;49.002;8.390;2023-03-14T02:41:04;13.00;99.90
1880;DHT22;49285;49.002;8.390;2023-03-14T02:43:30;12.90;99.90
1880;DHT22;49285;49.002;8.390;2023-03-14T02:45:56;12.90;99.90
1880;DHT22;49285;49.002;8.390;2023-03-14T02:48:45;12.90;99.90
1880;DHT22;49285;49.002;8.390;2023-03-14T02:51:12;12.90;99.90
1880;DHT22;49285;49.002;8.390;2023-03-14T02:53:39;12.80;99.90
1880;DHT22;49285;49.002;8.390;2023-03-14T02:56:07;12.80;99.90
1880;DHT22;49285;49.002;8.390;2023-03-14T02:58:32;12.90;99.90
1880;DHT22;49285;49.002;8.390;2023-03-14T03:00:58;12.80;99.90
1880;DHT22;49285;49.002;8.390;2023-03-14T03:03:24;12.80;99.90
1880;DHT22;49285;49.002;8.390;2023-03-14T03:05:54;12.90;99.90
1880;DHT22;49285;49.002;8.390;2023-03-14T03:08:22;12.90;99.90
1880;DHT22;49285;49.002;8.390;2023-03-14T03:10:48;12.80;99.90
1880;DHT22;49285;49.002;8.390;2023-03-14T03:13:14;12.80;99.90
1880;DHT22;49285;49.002;8.390;2023-03-14T03:15:40;12.80;99.90
1880;DHT22;49285;49.002;8.390;2023-03-14T03:18:06;12.80;99.90
1880;DHT22;49285;49.002;8.390;2023-03-14T03:20:32;12.80;99.90
1880;DHT22;49285;49.002;8.390;2023-03-14T03:22:58;12.70;99.90
1880;DHT22;49285;49.002;8.390;2023-03-14T03:25:24;12.70;99.90
1880;DHT22;49285;49.002;8.390;2023-03-14T03:27:50;12.70;99.90
1880;DHT22;49285;49.002;8.390;2023-03-14T03:30:15;12.70;99.90
1880;DHT22;49285;49.002;8.390;2023-03-14T03:32:41;12.80;99.90
1880;DHT22;49285;49.002;8.390;2023-03-14T03:35:07;12.70;99.90
1880;DHT22;49285;49.002;8.390;2023-03-14T03:37:33;12.80;99.90
1880;DHT22;49285;49.002;8.390;2023-03-14T03:39:59;12.70;99.90
1880;DHT22;49285;49.002;8.390;2023-03-14T03:42:26;12.70;99.90
1880;DHT22;49285;49.002;8.390;2023-03-14T03:44:52;12.80;99.90
1880;DHT22;49285;49.002;8.390;2023-03-14T03:47:18;12.70;99.90
1880;DHT22;49285;49.002;8.390;2023-03-14T03:49:43;12.70;99.90
1880;DHT22;49285;49.002;8.390;2023-03-14T03:52:09;12.70;99.90
1880;DHT22;49285;49.002;8.390;2023-03-14T03:54:35;12.80;99.90
1880;DHT22;49285;49.002;8.390;2023-03-14T03:57:00;12.80;99.90
1880;DHT22;49285;49.002;8.390;2023-03-14T03:59:26;12.70;99.90
1880;DHT22;49285;49.002;8.390;2023-03-14T04:01:52;12.80;99.90
1880;DHT22;49285;49.002;8.390;2023-03-14T04:04:17;12.80;99.90
1880;DHT22;49285;49.002;8.390;2023-03-14T04:06:43;12.70;99.90
1880;DHT22;49285;49.002;8.390;2023-03-14T04:09:09;12.70;99.90
1880;DHT22;49285;49.002;8.390;2023-03-14T04:11:35;12.80;99.90
1880;DHT22;49285;49.002;8.390;2023-03-14T04:14:02;12.70;99.90
1880;DHT22;49285;49.002;8.390;2023-03-14T04:16:27;12.70;99.90
1880;DHT22;49285;49.002;8.390;2023-03-14T04:18:53;12.70;99.90
1880;DHT22;49285;49.002;8.390;2023-03-14T04:21:19;12.70;99.90
1880;DHT22;49285;49.002;8.390;2023-03-14T04:23:44;12.70;99.90
1880;DHT22;49285;49.002;8.390;2023-03-14T04:26:10;12.70;99.90
1880;DHT22;49285;49.002;8.390;2023-03-14T04:28:36;12.60;99.90
1880;DHT22;49285;49.002;8.390;2023-03-14T04:31:09;12.70;99.90
1880;DHT22;49285;49.002;8.390;2023-03-14T04:33:35;12.60;99.90
1880;DHT22;49285;49.002;8.390;2023-03-14T04:36:02;12.60;99.90
1880;DHT22;49285;49.002;8.390;2023-03-14T04:38:28;12.60;99.90
1880;DHT22;49285;49.002;8.390;2023-03-14T04:40:53;12.70;99.90
1880;DHT22;49285;49.002;8.390;2023-03-14T04:43:19;12.50;99.90
1880;DHT22;49285;49.002;8.390;2023-03-14T04:45:45;12.60;99.90
1880;DHT22;49285;49.002;8.390;2023-03-14T04:48:10;12.50;99.90
1880;DHT22;49285;49.002;8.390;2023-03-14T04:50:36;12.60;99.90
1880;DHT22;49285;49.002;8.390;2023-03-14T04:53:01;12.60;99.90
1880;DHT22;49285;49.002;8.390;2023-03-14T04:55:27;12.60;99.90
1880;DHT22;49285;49.002;8.390;2023-03-14T04:57:52;12.70;99.90
1880;DHT22;49285;49.002;8.390;2023-03-14T05:00:18;12.60;99.90
1880;DHT22;49285;49.002;8.390;2023-03-14T05:02:44;12.50;99.90
1880;DHT22;49285;49.002;8.390;2023-03-14T05:05:10;12.50;99.90
1880;DHT22;49285;49.002;8.390;2023-03-14T05:07:36;12.50;99.90
1880;DHT22;49285;49.002;8.390;2023-03-14T05:10:01;12.60;99.90
1880;DHT22;49285;49.002;8.390;2023-03-14T05:12:27;12.70;99.90
1880;DHT22;49285;49.002;8.390;2023-03-14T05:14:53;12.70;99.90
1880;DHT22;49285;49.002;8.390;2023-03-14T05:17:18;12.60;99.90
1880;DHT22;49285;49.002;8.390;2023-03-14T05:19:44;12.60;99.90
1880;DHT22;49285;49.002;8.390;2023-03-14T05:22:10;12.70;99.90
1880;DHT22;49285;49.002;8.390;2023-03-14T05:24:36;12.70;99.90
1880;DHT22;49285;49.002;8.390;2023-03-14T05:27:03;12.60;99.90
1880;DHT22;49285;49.002;8.390;2023-03-14T05:29:29;12.60;99.90
1880;DHT22;49285;49.002;8.390;2023-03-14T05:31:55;12.70;99.90
1880;DHT22;49285;49.002;8.390;2023-03-14T05:34:20;12.70;99.90
1880;DHT22;49285;49.002;8.390;2023-03-14T05:36:46;12.60;99.90
1880;DHT22;49285;49.002;8.390;2023-03-14T05:39:12;12.70;99.90
1880;DHT22;49285;49.002;8.390;2023-03-14T05:41:37;12.60;99.90
1880;DHT22;49285;49.002;8.390;2023-03-14T05:44:03;12.60;99.90
1880;DHT22;49285;49.002;8.390;2023-03-14T05:46:29;12.70;99.90
1880;DHT22;49285;49.002;8.390;2023-03-14T05:48:56;12.70;99.90
1880;DHT22;49285;49.002;8.390;2023-03-14T05:51:24;12.70;99.90
1880;DHT22;49285;49.002;8.390;2023-03-14T05:53:49;12.70;99.90
1880;DHT22;49285;49.002;8.390;2023-03-14T05:56:15;12.60;99.90
1880;DHT22;49285;49.002;8.390;2023-03-14T05:58:41;12.50;99.90
1880;DHT22;49285;49.002;8.390;2023-03-14T06:01:07;12.50;99.90
1880;DHT22;49285;49.002;8.390;2023-03-14T06:03:33;12.40;99.90
1880;DHT22;49285;49.002;8.390;2023-03-14T06:05:59;12.40;99.90
1880;DHT22;49285;49.002;8.390;2023-03-14T06:08:24;12.40;99.90
1880;DHT22;49285;49.002;8.390;2023-03-14T06:10:51;12.30;99.90
1880;DHT22;49285;49.002;8.390;2023-03-14T06:13:16;12.30;99.90
1880;DHT22;49285;49.002;8.390;2023-03-14T06:15:42;12.30;99.90
1880;DHT22;49285;49.002;8.390;2023-03-14T06:18:08;12.30;99.90
1880;DHT22;49285;49.002;8.390;2023-03-14T06:20:36;12.30;99.90
1880;DHT22;49285;49.002;8.390;2023-03-14T06:23:04;12.30;99.90
1880;DHT22;49285;49.002;8.390;2023-03-14T06:25:30;12.30;99.90
1880;DHT22;49285;49.002;8.390;2023-03-14T06:27:57;12.30;99.90
1880;DHT22;49285;49.002;8.390;2023-03-14T06:30:23;12.30;99.90
1880;DHT22;49285;49.002;8.390;2023-03-14T06:32:48;12.30;99.90
1880;DHT22;49285;49.002;8.390;2023-03-14T06:35:14;12.30;99.90
1880;DHT22;49285;49.002;8.390;2023-03-14T06:37:39;12.30;99.90
1880;DHT22;49285;49.002;8.390;2023-03-14T06:40:05;12.30;99.90
1880;DHT22;49285;49.002;8.390;2023-03-14T06:42:32;12.30;99.90
1880;DHT22;49285;49.002;8.390;2023-03-14T06:44:58;12.30;99.90
1880;DHT22;49285;49.002;8.390;2023-03-14T06:47:23;12.40;99.90
1880;DHT22;49285;49.002;8.390;2023-03-14T06:49:49;12.40;99.90
1880;DHT22;49285;49.002;8.390;2023-03-14T06:52:15;12.40;99.90
1880;DHT22;49285;49.002;8.390;2023-03-14T06:54:40;12.50;99.90
1880;DHT22;49285;49.002;8.390;2023-03-14T06:57:06;12.50;99.90
1880;DHT22;49285;49.002;8.390;2023-03-14T06:59:31;12.60;99.90
1880;DHT22;49285;49.002;8.390;2023-03-14T07:01:57;12.50;99.90
1880;DHT22;49285;49.002;8.390;2023-03-14T07:04:22;12.60;99.90
1880;DHT22;49285;49.002;8.390;2023-03-14T07:06:48;12.70;99.90
1880;DHT22;49285;49.002;8.390;2023-03-14T07:09:15;12.70;99.90
1880;DHT22;49285;49.002;8.390;2023-03-14T07:11:42;12.80;99.90
1880;DHT22;49285;49.002;8.390;2023-03-14T07:14:08;12.90;99.90
1880;DHT22;49285;49.002;8.390;2023-03-14T07:16:34;12.90;99.90
1880;DHT22;49285;49.002;8.390;2023-03-14T07:19:00;13.00;99.90
1880;DHT22;49285;49.002;8.390;2023-03-14T07:21:26;13.00;99.90
1880;DHT22;49285;49.002;8.390;2023-03-14T07:23:51;13.10;99.90
1880;DHT22;49285;49.002;8.390;2023-03-14T07:26:17;13.10;99.90
1880;DHT22;49285;49.002;8.390;2023-03-14T07:28:42;13.10;99.90
1880;DHT22;49285;49.002;8.390;2023-03-14T07:31:08;13.10;99.90
1880;DHT22;49285;49.002;8.390;2023-03-14T07:33:34;13.10;99.90
1880;DHT22;49285;49.002;8.390;2023-03-14T07:35:59;13.00;99.90
1880;DHT22;49285;49.002;8.390;2023-03-14T07:38:25;13.20;99.90
1880;DHT22;49285;49.002;8.390;2023-03-14T07:41:00;13.20;99.90
1880;DHT22;49285;49.002;8.390;2023-03-14T07:43:26;13.30;99.90
1880;DHT22;49285;49.002;8.390;2023-03-14T07:45:52;13.40;99.90
1880;DHT22;49285;49.002;8.390;2023-03-14T07:48:17;13.50;99.90
1880;DHT22;49285;49.002;8.390;2023-03-14T07:50:43;13.60;99.90
1880;DHT22;49285;49.002;8.390;2023-03-14T07:53:09;13.50;99.90
1880;DHT22;49285;49.002;8.390;2023-03-14T07:55:34;13.50;99.90
1880;DHT22;49285;49.002;8.390;2023-03-14T07:58:00;13.60;99.90
1880;DHT22;49285;49.002;8.390;2023-03-14T08:00:26;13.60;99.90
1880;DHT22;49285;49.002;8.390;2023-03-14T08:02:51;13.70;99.90
1880;DHT22;49285;49.002;8.390;2023-03-14T08:05:17;13.60;99.90
1880;DHT22;49285;49.002;8.390;2023-03-14T08:07:42;13.70;99.90
1880;DHT22;49285;49.002;8.390;2023-03-14T08:10:08;13.80;99.90
1880;DHT22;49285;49.002;8.390;2023-03-14T08:12:34;13.70;99.90
1880;DHT22;49285;49.002;8.390;2023-03-14T08:15:00;13.70;99.90
1880;DHT22;49285;49.002;8.390;2023-03-14T08:17:26;13.60;99.90
1880;DHT22;49285;49.002;8.390;2023-03-14T08:19:51;13.60;99.90
1880;DHT22;49285;49.002;8.390;2023-03-14T08:22:17;13.60;99.90
1880;DHT22;49285;49.002;8.390;2023-03-14T08:24:42;13.50;99.90
1880;DHT22;49285;49.002;8.390;2023-03-14T08:27:08;13.60;99.90
1880;DHT22;49285;49.002;8.390;2023-03-14T08:29:34;13.30;99.90
1880;DHT22;49285;49.002;8.390;2023-03-14T08:31:59;13.10;99.90
1880;DHT22;49285;49.002;8.390;2023-03-14T08:34:25;13.10;99.90
1880;DHT22;49285;49.002;8.390;2023-03-14T08:36:50;13.00;99.90
1880;DHT22;49285;49.002;8.390;2023-03-14T08:39:16;13.20;99.90
1880;DHT22;49285;49.002;8.390;2023-03-14T08:41:41;13.10;99.90
1880;DHT22;49285;49.002;8.390;2023-03-14T08:44:09;13.10;99.90
1880;DHT22;49285;49.002;8.390;2023-03-14T08:46:36;13.20;99.90
1880;DHT22;49285;49.002;8.390;2023-03-14T08:49:02;13.30;99.90
1880;DHT22;49285;49.002;8.390;2023-03-14T08:51:28;13.40;99.90
1880;DHT22;49285;49.002;8.390;2023-03-14T08:53:54;13.50;99.90
1880;DHT22;49285;49.002;8.390;2023-03-14T08:56:19;13.50;99.90
1880;DHT22;49285;49.002;8.390;2023-03-14T08:58:45;13.50;99.90
1880;DHT22;49285;49.002;8.390;2023-03-14T09:01:11;13.50;99.90
1880;DHT22;49285;49.002;8.390;2023-03-14T09:03:37;13.60;99.90
1880;DHT22;49285;49.002;8.390;2023-03-14T09:06:08;13.60;99.90
1880;DHT22;49285;49.002;8.390;2023-03-14T09:08:34;13.60;99.90
1880;DHT22;49285;49.002;8.390;2023-03-14T09:11:00;13.60;99.90
1880;DHT22;49285;49.002;8.390;2023-03-14T09:13:26;13.60;99.90
1880;DHT22;49285;49.002;8.390;2023-03-14T09:15:55;13.60;99.90
1880;DHT22;49285;49.002;8.390;2023-03-14T09:18:21;13.70;99.90
1880;DHT22;49285;49.002;8.390;2023-03-14T09:20:48;13.70;99.90
1880;DHT22;49285;49.002;8.390;2023-03-14T09:23:13;13.80;99.90
1880;DHT22;49285;49.002;8.390;2023-03-14T09:25:39;13.80;99.90
1880;DHT22;49285;49.002;8.390;2023-03-14T09:28:05;13.90;99.90
1880;DHT22;49285;49.002;8.390;2023-03-14T09:30:30;14.10;99.90
1880;DHT22;49285;49.002;8.390;2023-03-14T09:32:56;14.10;99.90
1880;DHT22;49285;49.002;8.390;2023-03-14T09:35:23;14.00;99.90
1880;DHT22;49285;49.002;8.390;2023-03-14T09:37:48;14.00;99.90
1880;DHT22;49285;49.002;8.390;2023-03-14T09:40:18;14.00;99.90
1880;DHT22;49285;49.002;8.390;2023-03-14T09:42:54;13.90;99.90
1880;DHT22;49285;49.002;8.390;2023-03-14T09:45:27;13.80;99.90
1880;DHT22;49285;49.002;8.390;2023-03-14T09:47:55;13.80;99.90
1880;DHT22;49285;49.002;8.390;2023-03-14T09:50:22;13.80;99.90
1880;DHT22;49285;49.002;8.390;2023-03-14T09:52:51;13.70;99.90
1880;DHT22;49285;49.002;8.390;2023-03-14T09:55:22;13.60;99.90
1880;DHT22;49285;49.002;8.390;2023-03-14T09:57:57;13.70;99.90
1880;DHT22;49285;49.002;8.390;2023-03-14T10:00:30;13.80;99.90
1880;DHT22;49285;49.002;8.390;2023-03-14T10:03:20;13.80;99.90
1880;DHT22;49285;49.002;8.390;2023-03-14T10:05:45;14.00;99.90
1880;DHT22;49285;49.002;8.390;2023-03-14T10:08:12;14.20;99.90
1880;DHT22;49285;49.002;8.390;2023-03-14T10:10:37;14.10;99.90
1880;DHT22;49285;49.002;8.390;2023-03-14T10:15:37;13.60;99.90
1880;DHT22;49285;49.002;8.390;2023-03-14T10:18:05;13.70;99.90
1880;DHT22;49285;49.002;8.390;2023-03-14T10:20:43;13.70;99.90
1880;DHT22;49285;49.002;8.390;2023-03-14T10:25:42;13.50;99.90
1880;DHT22;49285;49.002;8.390;2023-03-14T10:28:26;13.50;99.90
1880;DHT22;49285;49.002;8.390;2023-03-14T10:30:53;13.30;99.90
1880;DHT22;49285;49.002;8.390;2023-03-14T10:33:25;13.30;99.90
1880;DHT22;49285;49.002;8.390;2023-03-14T10:35:57;13.20;99.90
1880;DHT22;49285;49.002;8.390;2023-03-14T10:38:28;13.30;99.90
1880;DHT22;49285;49.002;8.390;2023-03-14T10:40:55;13.30;99.90
1880;DHT22;49285;49.002;8.390;2023-03-14T10:43:35;13.30;99.90
1880;DHT22;49285;49.002;8.390;2023-03-14T10:46:21;13.20;99.90
1880;DHT22;49285;49.002;8.390;2023-03-14T10:48:48;13.00;99.90
1880;DHT22;49285;49.002;8.390;2023-03-14T10:53:46;12.90;99.90
1880;DHT22;49285;49.002;8.390;2023-03-14T10:56:20;12.80;99.90
1880;DHT22;49285;49.002;8.390;2023-03-14T10:58:51;12.70;99.90
1880;DHT22;49285;49.002;8.390;2023-03-14T11:01:48;12.80;99.90
1880;DHT22;49285;49.002;8.390;2023-03-14T11:04:40;12.60;99.90
1880;DHT22;49285;49.002;8.390;2023-03-14T11:14:51;12.30;99.90
1880;DHT22;49285;49.002;8.390;2023-03-14T11:18:08;12.20;99.90
1880;DHT22;49285;49.002;8.390;2023-03-14T11:24:10;11.90;99.90
1880;DHT22;49285;49.002;8.390;2023-03-14T11:29:32;11.70;99.90
1880;DHT22;49285;49.002;8.390;2023-03-14T11:32:02;11.80;99.90
1880;DHT22;49285;49.002;8.390;2023-03-14T11:34:36;12.10;99.90
1880;DHT22;49285;49.002;8.390;2023-03-14T11:37:14;12.10;99.90
1880;DHT22;49285;49.002;8.390;2023-03-14T11:39:47;11.90;99.90
1880;DHT22;49285;49.002;8.390;2023-03-14T11:42:17;11.70;99.90
1880;DHT22;49285;49.002;8.390;2023-03-14T11:44:46;11.60;99.90
1880;DHT22;49285;49.002;8.390;2023-03-14T11:47:20;11.30;99.90
1880;DHT22;49285;49.002;8.390;2023-03-14T11:50:23;11.30;99.90
1880;DHT22;49285;49.002;8.390;2023-03-14T11:52:49;11.30;99.90
1880;DHT22;49285;49.002;8.390;2023-03-14T11:55:20;11.20;99.90
1880;DHT22;49285;49.002;8.390;2023-03-14T11:57:47;11.20;99.90
1880;DHT22;49285;49.002;8.390;2023-03-14T12:00:23;10.90;99.90
1880;DHT22;49285;49.002;8.390;2023-03-14T12:05:45;10.80;99.90
1880;DHT22;49285;49.002;8.390;2023-03-14T12:13:47;10.70;99.90
1880;DHT22;49285;49.002;8.390;2023-03-14T12:18:49;10.70;99.90
1880;DHT22;49285;49.002;8.390;2023-03-14T12:21:15;10.90;99.90
1880;DHT22;49285;49.002;8.390;2023-03-14T12:23:43;11.10;99.90
1880;DHT22;49285;49.002;8.390;2023-03-14T12:26:13;11.30;99.90
1880;DHT22;49285;49.002;8.390;2023-03-14T12:29:14;11.40;99.90
1880;DHT22;49285;49.002;8.390;2023-03-14T12:32:06;11.30;99.90
1880;DHT22;49285;49.002;8.390;2023-03-14T12:34:40;11.80;99.90
1880;DHT22;49285;49.002;8.390;2023-03-14T12:37:19;12.40;99.90
1880;DHT22;49285;49.002;8.390;2023-03-14T12:48:04;16.60;99.90
1880;DHT22;49285;49.002;8.390;2023-03-14T12:50:40;16.70;99.90
1880;DHT22;49285;49.002;8.390;2023-03-14T12:53:12;16.60;98.10
1880;DHT22;49285;49.002;8.390;2023-03-14T12:56:11;15.50;96.50
1880;DHT22;49285;49.002;8.390;2023-03-14T13:01:16;14.60;96.40
1880;DHT22;49285;49.002;8.390;2023-03-14T13:03:47;14.20;95.10
1880;DHT22;49285;49.002;8.390;2023-03-14T13:06:49;14.40;95.90
1880;DHT22;49285;49.002;8.390;2023-03-14T13:11:53;14.20;91.80
1880;DHT22;49285;49.002;8.390;2023-03-14T13:14:19;14.10;91.40
1880;DHT22;49285;49.002;8.390;2023-03-14T13:16:46;13.90;92.00
1880;DHT22;49285;49.002;8.390;2023-03-14T13:19:26;13.40;92.20
1880;DHT22;49285;49.002;8.390;2023-03-14T13:22:04;13.40;92.10
1880;DHT22;49285;49.002;8.390;2023-03-14T13:24:33;12.90;92.90
1880;DHT22;49285;49.002;8.390;2023-03-14T13:26:59;12.50;93.50
1880;DHT22;49285;49.002;8.390;2023-03-14T13:29:28;12.40;93.70
1880;DHT22;49285;49.002;8.390;2023-03-14T13:31:56;12.40;93.40
1880;DHT22;49285;49.002;8.390;2023-03-14T13:34:31;12.10;93.50
1880;DHT22;49285;49.002;8.390;2023-03-14T13:36:57;12.30;93.80
1880;DHT22;49285;49.002;8.390;2023-03-14T13:39:24;12.20;92.70
1880;DHT22;49285;49.002;8.390;2023-03-14T13:41:57;12.00;92.40
1880;DHT22;49285;49.002;8.390;2023-03-14T13:44:33;12.00;92.90
1880;DHT22;49285;49.002;8.390;2023-03-14T13:47:00;11.90;93.50
1880;DHT22;49285;49.002;8.390;2023-03-14T13:49:28;11.70;93.30
1880;DHT22;49285;49.002;8.390;2023-03-14T13:51:54;11.60;93.50
1880;DHT22;49285;49.002;8.390;2023-03-14T13:54:22;11.60;92.50
1880;DHT22;49285;49.002;8.390;2023-03-14T13:56:48;11.60;91.90
1880;DHT22;49285;49.002;8.390;2023-03-14T13:59:24;11.80;90.80
1880;DHT22;49285;49.002;8.390;2023-03-14T14:01:51;11.80;90.20
1880;DHT22;49285;49.002;8.390;2023-03-14T14:04:21;11.70;90.40
1880;DHT22;49285;49.002;8.390;2023-03-14T14:06:50;12.00;90.30
1880;DHT22;49285;49.002;8.390;2023-03-14T14:09:20;12.10;90.70
1880;DHT22;49285;49.002;8.390;2023-03-14T14:14:28;12.90;87.70
1880;DHT22;49285;49.002;8.390;2023-03-14T14:16:55;12.90;87.20
1880;DHT22;49285;49.002;8.390;2023-03-14T14:19:22;12.70;88.60
1880;DHT22;49285;49.002;8.390;2023-03-14T14:21:48;13.30;87.70
1880;DHT22;49285;49.002;8.390;2023-03-14T14:24:15;14.10;86.80
1880;DHT22;49285;49.002;8.390;2023-03-14T14:26:47;13.80;84.30
1880;DHT22;49285;49.002;8.390;2023-03-14T14:29:26;14.50;84.60
1880;DHT22;49285;49.002;8.390;2023-03-14T14:34:48;17.00;77.30
1880;DHT22;49285;49.002;8.390;2023-03-14T14:37:33;16.80;72.20
1880;DHT22;49285;49.002;8.390;2023-03-14T14:40:07;16.40;71.80
1880;DHT22;49285;49.002;8.390;2023-03-14T14:42:33;14.90;71.20
1880;DHT22;49285;49.002;8.390;2023-03-14T14:44:59;14.10;73.80
1880;DHT22;49285;49.002;8.390;2023-03-14T14:47:28;13.60;76.40
1880;DHT22;49285;49.002;8.390;2023-03-14T14:49:58;12.90;76.50
1880;DHT22;49285;49.002;8.390;2023-03-14T14:52:36;12.90;79.40
1880;DHT22;49285;49.002;8.390;2023-03-14T14:55:02;12.80;79.60
1880;DHT22;49285;49.002;8.390;2023-03-14T14:57:33;12.70;80.70
1880;DHT22;49285;49.002;8.390;2023-03-14T15:00:05;12.70;81.50
1880;DHT22;49285;49.002;8.390;2023-03-14T15:05:13;12.10;82.40
1880;DHT22;49285;49.002;8.390;2023-03-14T15:07:39;11.80;83.80
1880;DHT22;49285;49.002;8.390;2023-03-14T15:10:06;12.00;85.90
1880;DHT22;49285;49.002;8.390;2023-03-14T15:12:31;12.00;85.80
1880;DHT22;49285;49.002;8.390;2023-03-14T15:14:57;12.10;86.20
1880;DHT22;49285;49.002;8.390;2023-03-14T15:17:23;12.20;86.50
1880;DHT22;49285;49.002;8.390;2023-03-14T15:19:49;12.20;87.60
1880;DHT22;49285;49.002;8.390;2023-03-14T15:22:15;12.40;88.50
1880;DHT22;49285;49.002;8.390;2023-03-14T15:24:41;12.40;89.00
1880;DHT22;49285;49.002;8.390;2023-03-14T15:27:15;12.20;90.10
1880;DHT22;49285;49.002;8.390;2023-03-14T15:29:41;12.00;90.50
1880;DHT22;49285;49.002;8.390;2023-03-14T15:32:11;12.00;91.10
1880;DHT22;49285;49.002;8.390;2023-03-14T15:34:37;12.10;91.50
1880;DHT22;49285;49.002;8.390;2023-03-14T15:37:03;12.00;91.70
1880;DHT22;49285;49.002;8.390;2023-03-14T15:39:33;11.90;92.10
1880;DHT22;49285;49.002;8.390;2023-03-14T15:41:59;11.90;92.20
1880;DHT22;49285;49.002;8.390;2023-03-14T15:44:25;11.80;92.80
1880;DHT22;49285;49.002;8.390;2023-03-14T15:46:50;11.70;93.00
1880;DHT22;49285;49.002;8.390;2023-03-14T15:49:16;11.70;93.10
1880;DHT22;49285;49.002;8.390;2023-03-14T15:51:41;11.70;93.20
1880;DHT22;49285;49.002;8.390;2023-03-14T15:54:07;11.60;92.80
1880;DHT22;49285;49.002;8.390;2023-03-14T15:56:33;11.50;93.40
1880;DHT22;49285;49.002;8.390;2023-03-14T15:58:58;11.50;93.60
1880;DHT22;49285;49.002;8.390;2023-03-14T16:01:24;11.40;93.80
1880;DHT22;49285;49.002;8.390;2023-03-14T16:03:49;11.40;94.10
1880;DHT22;49285;49.002;8.390;2023-03-14T16:06:18;11.40;95.20
1880;DHT22;49285;49.002;8.390;2023-03-14T16:08:44;11.30;96.00
1880;DHT22;49285;49.002;8.390;2023-03-14T16:11:11;11.10;96.70
1880;DHT22;49285;49.002;8.390;2023-03-14T16:13:38;11.00;96.50
1880;DHT22;49285;49.002;8.390;2023-03-14T16:16:04;11.00;97.00
1880;DHT22;49285;49.002;8.390;2023-03-14T16:18:32;10.70;97.70
1880;DHT22;49285;49.002;8.390;2023-03-14T16:21:00;10.80;98.20
1880;DHT22;49285;49.002;8.390;2023-03-14T16:23:27;10.70;97.90
1880;DHT22;49285;49.002;8.390;2023-03-14T16:25:54;10.60;98.60
1880;DHT22;49285;49.002;8.390;2023-03-14T16:28:20;10.50;99.10
1880;DHT22;49285;49.002;8.390;2023-03-14T16:30:46;10.40;99.50
1880;DHT22;49285;49.002;8.390;2023-03-14T16:33:12;10.20;99.90
1880;DHT22;49285;49.002;8.390;2023-03-14T16:35:39;10.20;99.90
1880;DHT22;49285;49.002;8.390;2023-03-14T16:38:04;10.00;99.90
1880;DHT22;49285;49.002;8.390;2023-03-14T16:40:30;10.10;99.90
1880;DHT22;49285;49.002;8.390;2023-03-14T16:42:56;10.00;99.90
1880;DHT22;49285;49.002;8.390;2023-03-14T16:45:21;10.00;99.90
1880;DHT22;49285;49.002;8.390;2023-03-14T16:47:47;10.00;99.90
1880;DHT22;49285;49.002;8.390;2023-03-14T16:50:12;9.90;99.90
1880;DHT22;49285;49.002;8.390;2023-03-14T16:52:38;9.90;99.90